sensor_id;sensor_type;location;lat;lon;timestamp;P1;durP1;ratioP1;P2;durP2;ratioP2
45944;SDS011;31655;48.972;10.686;2023-03-01T00:02:20;40.60;;;18.08;;
45944;SDS011;31655;48.972;10.686;2023-03-01T00:04:46;38.65;;;17.90;;
45944;SDS011;31655;48.972;10.686;2023-03-01T00:07:12;37.03;;;17.42;;
45944;SDS011;31655;48.972;10.686;2023-03-01T00:09:38;39.47;;;19.02;;
45944;SDS011;31655;48.972;10.686;2023-03-01T00:12:05;35.08;;;16.98;;
45944;SDS011;31655;48.972;10.686;2023-03-01T00:14:31;34.67;;;16.02;;
45944;SDS011;31655;48.972;10.686;2023-03-01T00:16:57;36.17;;;17.77;;
45944;SDS011;31655;48.972;10.686;2023-03-01T00:19:22;36.10;;;18.55;;
45944;SDS011;31655;48.972;10.686;2023-03-01T00:21:49;38.92;;;18.77;;
45944;SDS011;31655;48.972;10.686;2023-03-01T00:24:15;39.72;;;18.70;;
45944;SDS011;31655;48.972;10.686;2023-03-01T00:26:41;38.38;;;17.67;;
45944;SDS011;31655;48.972;10.686;2023-03-01T00:29:08;43.25;;;19.02;;
45944;SDS011;31655;48.972;10.686;2023-03-01T00:31:34;43.22;;;18.83;;
45944;SDS011;31655;48.972;10.686;2023-03-01T00:34:00;42.75;;;17.23;;
45944;SDS011;31655;48.972;10.686;2023-03-01T00:36:28;37.22;;;17.27;;
45944;SDS011;31655;48.972;10.686;2023-03-01T00:38:55;35.50;;;16.50;;
45944;SDS011;31655;48.972;10.686;2023-03-01T00:41:21;41.03;;;18.73;;
45944;SDS011;31655;48.972;10.686;2023-03-01T00:43:47;40.20;;;18.88;;
45944;SDS011;31655;48.972;10.686;2023-03-01T00:46:14;41.28;;;16.38;;
45944;SDS011;31655;48.972;10.686;2023-03-01T00:48:43;40.47;;;18.13;;
45944;SDS011;31655;48.972;10.686;2023-03-01T00:51:10;42.75;;;18.63;;
45944;SDS011;31655;48.972;10.686;2023-03-01T00:53:38;35.05;;;17.48;;
45944;SDS011;31655;48.972;10.686;2023-03-01T00:56:04;36.47;;;18.95;;
45944;SDS011;31655;48.972;10.686;2023-03-01T00:58:31;40.08;;;18.35;;
45944;SDS011;31655;48.972;10.686;2023-03-01T01:00:57;35.90;;;17.40;;
45944;SDS011;31655;48.972;10.686;2023-03-01T01:03:23;43.45;;;19.50;;
45944;SDS011;31655;48.972;10.686;2023-03-01T01:05:50;36.65;;;18.35;;
45944;SDS011;31655;48.972;10.686;2023-03-01T01:08:17;35.47;;;18.05;;
45944;SDS011;31655;48.972;10.686;2023-03-01T01:10:43;42.97;;;19.05;;
45944;SDS011;31655;48.972;10.686;2023-03-01T01:13:10;43.35;;;18.30;;
45944;SDS011;31655;48.972;10.686;2023-03-01T01:15:37;33.08;;;16.92;;
45944;SDS011;31655;48.972;10.686;2023-03-01T01:18:03;39.58;;;19.20;;
45944;SDS011;31655;48.972;10.686;2023-03-01T01:20:29;41.38;;;18.48;;
45944;SDS011;31655;48.972;10.686;2023-03-01T01:22:55;39.17;;;18.10;;
45944;SDS011;31655;48.972;10.686;2023-03-01T01:25:21;39.28;;;18.92;;
45944;SDS011;31655;48.972;10.686;2023-03-01T01:27:49;40.10;;;18.95;;
45944;SDS011;31655;48.972;10.686;2023-03-01T01:30:17;40.35;;;17.90;;
45944;SDS011;31655;48.972;10.686;2023-03-01T01:32:42;39.25;;;19.27;;
45944;SDS011;31655;48.972;10.686;2023-03-01T01:35:08;34.65;;;16.90;;
45944;SDS011;31655;48.972;10.686;2023-03-01T01:37:34;44.72;;;17.98;;
45944;SDS011;31655;48.972;10.686;2023-03-01T01:40:00;43.17;;;20.15;;
45944;SDS011;31655;48.972;10.686;2023-03-01T01:42:29;40.20;;;19.27;;
45944;SDS011;31655;48.972;10.686;2023-03-01T01:47:51;39.72;;;17.50;;
45944;SDS011;31655;48.972;10.686;2023-03-01T01:50:19;42.17;;;20.23;;
45944;SDS011;31655;48.972;10.686;2023-03-01T01:52:45;35.08;;;17.13;;
45944;SDS011;31655;48.972;10.686;2023-03-01T01:55:20;36.78;;;17.83;;
45944;SDS011;31655;48.972;10.686;2023-03-01T01:57:49;45.42;;;19.15;;
45944;SDS011;31655;48.972;10.686;2023-03-01T02:00:22;40.25;;;18.55;;
45944;SDS011;31655;48.972;10.686;2023-03-01T02:02:56;44.05;;;20.73;;
45944;SDS011;31655;48.972;10.686;2023-03-01T02:08:26;38.78;;;19.15;;
45944;SDS011;31655;48.972;10.686;2023-03-01T02:10:55;45.55;;;19.35;;
45944;SDS011;31655;48.972;10.686;2023-03-01T02:13:22;37.30;;;18.17;;
45944;SDS011;31655;48.972;10.686;2023-03-01T02:15:48;43.13;;;19.70;;
45944;SDS011;31655;48.972;10.686;2023-03-01T02:18:15;41.28;;;19.90;;
45944;SDS011;31655;48.972;10.686;2023-03-01T02:23:27;38.80;;;18.55;;
45944;SDS011;31655;48.972;10.686;2023-03-01T02:25:56;40.78;;;17.90;;
45944;SDS011;31655;48.972;10.686;2023-03-01T02:28:35;40.30;;;19.15;;
45944;SDS011;31655;48.972;10.686;2023-03-01T02:33:48;35.88;;;17.48;;
45944;SDS011;31655;48.972;10.686;2023-03-01T02:36:15;39.15;;;18.27;;
45944;SDS011;31655;48.972;10.686;2023-03-01T02:38:45;40.58;;;19.23;;
45944;SDS011;31655;48.972;10.686;2023-03-01T02:41:13;38.78;;;17.20;;
45944;SDS011;31655;48.972;10.686;2023-03-01T02:43:40;45.08;;;20.02;;
45944;SDS011;31655;48.972;10.686;2023-03-01T02:46:08;43.53;;;18.73;;
45944;SDS011;31655;48.972;10.686;2023-03-01T02:48:40;41.70;;;19.98;;
45944;SDS011;31655;48.972;10.686;2023-03-01T02:51:13;40.17;;;19.25;;
45944;SDS011;31655;48.972;10.686;2023-03-01T02:54:05;41.85;;;19.02;;
45944;SDS011;31655;48.972;10.686;2023-03-01T02:56:39;44.10;;;18.58;;
45944;SDS011;31655;48.972;10.686;2023-03-01T02:59:05;40.85;;;19.83;;
45944;SDS011;31655;48.972;10.686;2023-03-01T03:01:31;42.53;;;19.88;;
45944;SDS011;31655;48.972;10.686;2023-03-01T03:04:04;36.65;;;18.70;;
45944;SDS011;31655;48.972;10.686;2023-03-01T03:06:35;43.78;;;19.77;;
45944;SDS011;31655;48.972;10.686;2023-03-01T03:09:01;42.85;;;20.35;;
45944;SDS011;31655;48.972;10.686;2023-03-01T03:11:27;37.03;;;19.60;;
45944;SDS011;31655;48.972;10.686;2023-03-01T03:13:55;37.63;;;18.23;;
45944;SDS011;31655;48.972;10.686;2023-03-01T03:16:22;42.72;;;19.50;;
45944;SDS011;31655;48.972;10.686;2023-03-01T03:18:49;44.80;;;19.92;;
45944;SDS011;31655;48.972;10.686;2023-03-01T03:21:15;48.10;;;20.10;;
45944;SDS011;31655;48.972;10.686;2023-03-01T03:23:42;40.22;;;18.80;;
45944;SDS011;31655;48.972;10.686;2023-03-01T03:26:08;40.17;;;19.52;;
45944;SDS011;31655;48.972;10.686;2023-03-01T03:28:39;40.65;;;18.60;;
45944;SDS011;31655;48.972;10.686;2023-03-01T03:31:06;41.92;;;19.38;;
45944;SDS011;31655;48.972;10.686;2023-03-01T03:33:33;41.15;;;21.25;;
45944;SDS011;31655;48.972;10.686;2023-03-01T03:35:59;36.78;;;18.98;;
45944;SDS011;31655;48.972;10.686;2023-03-01T03:38:24;45.42;;;20.55;;
45944;SDS011;31655;48.972;10.686;2023-03-01T03:40:51;45.35;;;19.77;;
45944;SDS011;31655;48.972;10.686;2023-03-01T03:43:27;41.38;;;18.65;;
45944;SDS011;31655;48.972;10.686;2023-03-01T03:45:53;37.90;;;18.58;;
45944;SDS011;31655;48.972;10.686;2023-03-01T03:48:22;44.20;;;20.77;;
45944;SDS011;31655;48.972;10.686;2023-03-01T03:50:52;40.60;;;19.92;;
45944;SDS011;31655;48.972;10.686;2023-03-01T03:53:19;42.72;;;18.85;;
45944;SDS011;31655;48.972;10.686;2023-03-01T03:55:45;40.85;;;19.83;;
45944;SDS011;31655;48.972;10.686;2023-03-01T03:58:14;43.40;;;20.48;;
45944;SDS011;31655;48.972;10.686;2023-03-01T04:00:44;46.25;;;21.17;;
45944;SDS011;31655;48.972;10.686;2023-03-01T04:03:11;49.97;;;20.88;;
45944;SDS011;31655;48.972;10.686;2023-03-01T04:05:38;44.22;;;18.98;;
45944;SDS011;31655;48.972;10.686;2023-03-01T04:08:05;45.28;;;20.52;;
45944;SDS011;31655;48.972;10.686;2023-03-01T04:10:35;37.75;;;18.52;;
45944;SDS011;31655;48.972;10.686;2023-03-01T04:13:06;45.17;;;20.80;;
45944;SDS011;31655;48.972;10.686;2023-03-01T04:15:33;45.75;;;20.73;;
45944;SDS011;31655;48.972;10.686;2023-03-01T04:18:00;42.10;;;19.85;;
45944;SDS011;31655;48.972;10.686;2023-03-01T04:20:27;41.58;;;19.25;;
45944;SDS011;31655;48.972;10.686;2023-03-01T04:25:38;40.55;;;20.55;;
45944;SDS011;31655;48.972;10.686;2023-03-01T04:28:05;44.88;;;21.00;;
45944;SDS011;31655;48.972;10.686;2023-03-01T04:30:31;48.17;;;20.77;;
45944;SDS011;31655;48.972;10.686;2023-03-01T04:33:01;47.20;;;20.00;;
45944;SDS011;31655;48.972;10.686;2023-03-01T04:35:30;47.85;;;20.85;;
45944;SDS011;31655;48.972;10.686;2023-03-01T04:37:57;42.33;;;19.42;;
45944;SDS011;31655;48.972;10.686;2023-03-01T04:40:23;39.97;;;19.95;;
45944;SDS011;31655;48.972;10.686;2023-03-01T04:42:49;43.40;;;20.63;;
45944;SDS011;31655;48.972;10.686;2023-03-01T04:45:15;40.75;;;20.02;;
45944;SDS011;31655;48.972;10.686;2023-03-01T04:47:42;47.97;;;21.23;;
45944;SDS011;31655;48.972;10.686;2023-03-01T04:50:13;49.38;;;21.08;;
45944;SDS011;31655;48.972;10.686;2023-03-01T04:52:39;50.30;;;21.88;;
45944;SDS011;31655;48.972;10.686;2023-03-01T04:55:05;50.17;;;22.63;;
45944;SDS011;31655;48.972;10.686;2023-03-01T04:57:31;44.40;;;21.58;;
45944;SDS011;31655;48.972;10.686;2023-03-01T04:59:58;42.92;;;20.02;;
45944;SDS011;31655;48.972;10.686;2023-03-01T05:02:24;42.95;;;19.98;;
45944;SDS011;31655;48.972;10.686;2023-03-01T05:04:50;45.70;;;20.60;;
45944;SDS011;31655;48.972;10.686;2023-03-01T05:07:16;43.05;;;19.63;;
45944;SDS011;31655;48.972;10.686;2023-03-01T05:09:45;50.33;;;21.52;;
45944;SDS011;31655;48.972;10.686;2023-03-01T05:12:12;49.63;;;21.13;;
45944;SDS011;31655;48.972;10.686;2023-03-01T05:14:38;43.45;;;19.58;;
45944;SDS011;31655;48.972;10.686;2023-03-01T05:17:04;51.03;;;20.50;;
45944;SDS011;31655;48.972;10.686;2023-03-01T05:19:31;43.38;;;19.58;;
45944;SDS011;31655;48.972;10.686;2023-03-01T05:21:57;52.03;;;19.63;;
45944;SDS011;31655;48.972;10.686;2023-03-01T05:24:27;48.30;;;22.98;;
45944;SDS011;31655;48.972;10.686;2023-03-01T05:26:53;51.30;;;23.23;;
45944;SDS011;31655;48.972;10.686;2023-03-01T05:29:21;45.85;;;20.67;;
45944;SDS011;31655;48.972;10.686;2023-03-01T05:31:51;46.97;;;21.73;;
45944;SDS011;31655;48.972;10.686;2023-03-01T05:34:24;46.23;;;21.17;;
45944;SDS011;31655;48.972;10.686;2023-03-01T05:36:50;48.40;;;20.50;;
45944;SDS011;31655;48.972;10.686;2023-03-01T05:39:18;45.78;;;19.20;;
45944;SDS011;31655;48.972;10.686;2023-03-01T05:41:44;45.67;;;20.85;;
45944;SDS011;31655;48.972;10.686;2023-03-01T05:44:10;42.20;;;18.65;;
45944;SDS011;31655;48.972;10.686;2023-03-01T05:46:37;48.10;;;20.23;;
45944;SDS011;31655;48.972;10.686;2023-03-01T05:49:03;45.42;;;20.52;;
45944;SDS011;31655;48.972;10.686;2023-03-01T05:51:29;48.78;;;21.65;;
45944;SDS011;31655;48.972;10.686;2023-03-01T05:53:55;51.42;;;21.15;;
45944;SDS011;31655;48.972;10.686;2023-03-01T05:56:21;49.15;;;20.02;;
45944;SDS011;31655;48.972;10.686;2023-03-01T05:58:50;43.55;;;20.35;;
45944;SDS011;31655;48.972;10.686;2023-03-01T06:01:15;47.08;;;21.67;;
45944;SDS011;31655;48.972;10.686;2023-03-01T06:03:42;52.05;;;21.85;;
45944;SDS011;31655;48.972;10.686;2023-03-01T06:06:08;44.05;;;20.23;;
45944;SDS011;31655;48.972;10.686;2023-03-01T06:08:34;50.72;;;18.95;;
45944;SDS011;31655;48.972;10.686;2023-03-01T06:10:59;44.55;;;20.27;;
45944;SDS011;31655;48.972;10.686;2023-03-01T06:13:25;45.10;;;21.25;;
45944;SDS011;31655;48.972;10.686;2023-03-01T06:15:51;47.90;;;19.70;;
45944;SDS011;31655;48.972;10.686;2023-03-01T06:18:17;51.40;;;22.67;;
45944;SDS011;31655;48.972;10.686;2023-03-01T06:20:43;48.10;;;20.08;;
45944;SDS011;31655;48.972;10.686;2023-03-01T06:23:09;45.75;;;20.83;;
45944;SDS011;31655;48.972;10.686;2023-03-01T06:25:36;54.35;;;21.58;;
45944;SDS011;31655;48.972;10.686;2023-03-01T06:28:02;45.65;;;20.73;;
45944;SDS011;31655;48.972;10.686;2023-03-01T06:30:29;44.78;;;19.88;;
45944;SDS011;31655;48.972;10.686;2023-03-01T06:32:57;45.08;;;19.60;;
45944;SDS011;31655;48.972;10.686;2023-03-01T06:35:28;48.78;;;20.58;;
45944;SDS011;31655;48.972;10.686;2023-03-01T06:37:55;47.17;;;20.60;;
45944;SDS011;31655;48.972;10.686;2023-03-01T06:40:20;49.08;;;21.08;;
45944;SDS011;31655;48.972;10.686;2023-03-01T06:42:47;44.67;;;19.73;;
45944;SDS011;31655;48.972;10.686;2023-03-01T06:45:15;36.42;;;18.92;;
45944;SDS011;31655;48.972;10.686;2023-03-01T06:47:41;41.08;;;20.00;;
45944;SDS011;31655;48.972;10.686;2023-03-01T06:50:07;46.33;;;19.75;;
45944;SDS011;31655;48.972;10.686;2023-03-01T06:52:33;45.55;;;19.30;;
45944;SDS011;31655;48.972;10.686;2023-03-01T06:54:59;45.83;;;21.33;;
45944;SDS011;31655;48.972;10.686;2023-03-01T06:57:25;46.50;;;19.17;;
45944;SDS011;31655;48.972;10.686;2023-03-01T06:59:51;42.47;;;19.83;;
45944;SDS011;31655;48.972;10.686;2023-03-01T07:02:18;45.95;;;19.77;;
45944;SDS011;31655;48.972;10.686;2023-03-01T07:04:43;40.15;;;17.65;;
45944;SDS011;31655;48.972;10.686;2023-03-01T07:07:10;48.75;;;17.40;;
45944;SDS011;31655;48.972;10.686;2023-03-01T07:09:36;34.70;;;17.20;;
45944;SDS011;31655;48.972;10.686;2023-03-01T07:12:02;31.70;;;16.92;;
45944;SDS011;31655;48.972;10.686;2023-03-01T07:14:28;35.70;;;16.88;;
45944;SDS011;31655;48.972;10.686;2023-03-01T07:16:54;28.48;;;15.90;;
45944;SDS011;31655;48.972;10.686;2023-03-01T07:19:20;28.95;;;15.30;;
45944;SDS011;31655;48.972;10.686;2023-03-01T07:21:47;32.80;;;16.13;;
45944;SDS011;31655;48.972;10.686;2023-03-01T07:24:13;33.22;;;16.27;;
45944;SDS011;31655;48.972;10.686;2023-03-01T07:26:39;28.80;;;15.85;;
45944;SDS011;31655;48.972;10.686;2023-03-01T07:29:06;32.28;;;16.02;;
45944;SDS011;31655;48.972;10.686;2023-03-01T07:31:32;34.63;;;16.50;;
45944;SDS011;31655;48.972;10.686;2023-03-01T07:33:58;31.70;;;16.08;;
45944;SDS011;31655;48.972;10.686;2023-03-01T07:36:24;29.27;;;16.13;;
45944;SDS011;31655;48.972;10.686;2023-03-01T07:38:50;29.65;;;16.58;;
45944;SDS011;31655;48.972;10.686;2023-03-01T07:41:16;32.35;;;16.45;;
45944;SDS011;31655;48.972;10.686;2023-03-01T07:43:43;34.58;;;17.00;;
45944;SDS011;31655;48.972;10.686;2023-03-01T07:46:09;33.03;;;16.55;;
45944;SDS011;31655;48.972;10.686;2023-03-01T07:48:34;31.27;;;16.83;;
45944;SDS011;31655;48.972;10.686;2023-03-01T07:51:01;33.65;;;17.02;;
45944;SDS011;31655;48.972;10.686;2023-03-01T07:53:29;30.13;;;16.98;;
45944;SDS011;31655;48.972;10.686;2023-03-01T07:56:09;36.33;;;17.15;;
45944;SDS011;31655;48.972;10.686;2023-03-01T07:58:37;35.17;;;17.98;;
45944;SDS011;31655;48.972;10.686;2023-03-01T08:01:06;31.40;;;15.18;;
45944;SDS011;31655;48.972;10.686;2023-03-01T08:03:40;31.42;;;16.33;;
45944;SDS011;31655;48.972;10.686;2023-03-01T08:06:08;28.52;;;15.75;;
45944;SDS011;31655;48.972;10.686;2023-03-01T08:08:35;27.45;;;15.00;;
45944;SDS011;31655;48.972;10.686;2023-03-01T08:11:01;29.83;;;15.55;;
45944;SDS011;31655;48.972;10.686;2023-03-01T08:13:29;27.63;;;15.20;;
45944;SDS011;31655;48.972;10.686;2023-03-01T08:16:00;30.25;;;15.93;;
45944;SDS011;31655;48.972;10.686;2023-03-01T08:18:27;36.08;;;16.88;;
45944;SDS011;31655;48.972;10.686;2023-03-01T08:20:53;26.77;;;15.77;;
45944;SDS011;31655;48.972;10.686;2023-03-01T08:23:18;26.65;;;15.13;;
45944;SDS011;31655;48.972;10.686;2023-03-01T08:25:44;26.95;;;15.05;;
45944;SDS011;31655;48.972;10.686;2023-03-01T08:28:09;27.42;;;16.00;;
45944;SDS011;31655;48.972;10.686;2023-03-01T08:30:35;28.35;;;16.17;;
45944;SDS011;31655;48.972;10.686;2023-03-01T08:33:04;28.38;;;14.68;;
45944;SDS011;31655;48.972;10.686;2023-03-01T08:35:29;28.85;;;16.92;;
45944;SDS011;31655;48.972;10.686;2023-03-01T08:37:55;26.48;;;16.17;;
45944;SDS011;31655;48.972;10.686;2023-03-01T08:40:21;26.13;;;16.35;;
45944;SDS011;31655;48.972;10.686;2023-03-01T08:42:47;20.05;;;13.25;;
45944;SDS011;31655;48.972;10.686;2023-03-01T08:45:13;27.15;;;16.13;;
45944;SDS011;31655;48.972;10.686;2023-03-01T08:47:43;25.88;;;15.90;;
45944;SDS011;31655;48.972;10.686;2023-03-01T08:50:09;30.13;;;16.75;;
45944;SDS011;31655;48.972;10.686;2023-03-01T08:52:35;29.35;;;16.48;;
45944;SDS011;31655;48.972;10.686;2023-03-01T08:55:01;25.73;;;16.40;;
45944;SDS011;31655;48.972;10.686;2023-03-01T08:57:27;23.95;;;14.93;;
45944;SDS011;31655;48.972;10.686;2023-03-01T08:59:53;27.10;;;16.17;;
45944;SDS011;31655;48.972;10.686;2023-03-01T09:02:21;24.92;;;15.75;;
45944;SDS011;31655;48.972;10.686;2023-03-01T09:04:47;32.80;;;17.88;;
45944;SDS011;31655;48.972;10.686;2023-03-01T09:07:12;27.65;;;15.63;;
45944;SDS011;31655;48.972;10.686;2023-03-01T09:09:38;31.30;;;17.90;;
45944;SDS011;31655;48.972;10.686;2023-03-01T09:12:05;27.75;;;15.68;;
45944;SDS011;31655;48.972;10.686;2023-03-01T09:14:31;31.80;;;15.82;;
45944;SDS011;31655;48.972;10.686;2023-03-01T09:16:58;26.15;;;15.25;;
45944;SDS011;31655;48.972;10.686;2023-03-01T09:19:28;25.85;;;15.55;;
45944;SDS011;31655;48.972;10.686;2023-03-01T09:21:54;33.28;;;18.02;;
45944;SDS011;31655;48.972;10.686;2023-03-01T09:24:21;26.55;;;16.15;;
45944;SDS011;31655;48.972;10.686;2023-03-01T09:26:48;25.30;;;16.13;;
45944;SDS011;31655;48.972;10.686;2023-03-01T09:29:15;26.15;;;16.23;;
45944;SDS011;31655;48.972;10.686;2023-03-01T09:31:41;24.67;;;15.65;;
45944;SDS011;31655;48.972;10.686;2023-03-01T09:34:07;27.73;;;15.98;;
45944;SDS011;31655;48.972;10.686;2023-03-01T09:36:34;23.95;;;15.52;;
45944;SDS011;31655;48.972;10.686;2023-03-01T09:39:01;24.42;;;16.25;;
45944;SDS011;31655;48.972;10.686;2023-03-01T09:46:56;23.23;;;14.77;;
45944;SDS011;31655;48.972;10.686;2023-03-01T09:49:28;27.83;;;15.80;;
45944;SDS011;31655;48.972;10.686;2023-03-01T09:52:09;24.95;;;15.85;;
45944;SDS011;31655;48.972;10.686;2023-03-01T09:54:57;29.08;;;16.58;;
45944;SDS011;31655;48.972;10.686;2023-03-01T09:57:44;51.72;;;24.77;;
45944;SDS011;31655;48.972;10.686;2023-03-01T10:00:20;30.73;;;17.55;;
45944;SDS011;31655;48.972;10.686;2023-03-01T10:03:16;28.20;;;16.58;;
45944;SDS011;31655;48.972;10.686;2023-03-01T10:11:40;28.13;;;16.27;;
45944;SDS011;31655;48.972;10.686;2023-03-01T10:17:04;26.88;;;15.88;;
45944;SDS011;31655;48.972;10.686;2023-03-01T10:19:38;26.10;;;16.25;;
45944;SDS011;31655;48.972;10.686;2023-03-01T10:22:16;25.95;;;16.63;;
45944;SDS011;31655;48.972;10.686;2023-03-01T10:24:46;26.38;;;15.43;;
45944;SDS011;31655;48.972;10.686;2023-03-01T10:32:23;23.45;;;15.10;;
45944;SDS011;31655;48.972;10.686;2023-03-01T10:34:49;27.45;;;16.67;;
45944;SDS011;31655;48.972;10.686;2023-03-01T10:37:18;25.73;;;16.27;;
45944;SDS011;31655;48.972;10.686;2023-03-01T10:49:12;26.20;;;16.33;;
45944;SDS011;31655;48.972;10.686;2023-03-01T10:51:47;28.80;;;15.60;;
45944;SDS011;31655;48.972;10.686;2023-03-01T10:56:52;26.92;;;16.45;;
45944;SDS011;31655;48.972;10.686;2023-03-01T10:59:26;25.90;;;15.43;;
45944;SDS011;31655;48.972;10.686;2023-03-01T11:05:00;24.55;;;15.00;;
45944;SDS011;31655;48.972;10.686;2023-03-01T11:07:26;29.85;;;16.33;;
45944;SDS011;31655;48.972;10.686;2023-03-01T11:09:52;25.20;;;15.48;;
45944;SDS011;31655;48.972;10.686;2023-03-01T11:12:23;26.38;;;14.48;;
45944;SDS011;31655;48.972;10.686;2023-03-01T11:14:53;22.40;;;14.45;;
45944;SDS011;31655;48.972;10.686;2023-03-01T11:17:30;28.40;;;14.98;;
45944;SDS011;31655;48.972;10.686;2023-03-01T11:22:41;29.75;;;15.48;;
45944;SDS011;31655;48.972;10.686;2023-03-01T11:25:15;25.75;;;13.85;;
45944;SDS011;31655;48.972;10.686;2023-03-01T11:27:45;31.60;;;14.65;;
45944;SDS011;31655;48.972;10.686;2023-03-01T11:38:40;22.60;;;13.05;;
45944;SDS011;31655;48.972;10.686;2023-03-01T11:41:14;27.10;;;13.32;;
45944;SDS011;31655;48.972;10.686;2023-03-01T11:46:25;24.23;;;13.77;;
45944;SDS011;31655;48.972;10.686;2023-03-01T11:49:06;33.75;;;15.77;;
45944;SDS011;31655;48.972;10.686;2023-03-01T11:54:57;24.08;;;13.20;;
45944;SDS011;31655;48.972;10.686;2023-03-01T12:08:33;26.05;;;15.05;;
45944;SDS011;31655;48.972;10.686;2023-03-01T12:24:34;25.83;;;13.93;;
45944;SDS011;31655;48.972;10.686;2023-03-01T12:27:45;27.67;;;14.63;;
45944;SDS011;31655;48.972;10.686;2023-03-01T12:30:32;27.35;;;14.30;;
45944;SDS011;31655;48.972;10.686;2023-03-01T12:33:13;25.13;;;14.70;;
45944;SDS011;31655;48.972;10.686;2023-03-01T12:44:00;32.65;;;16.30;;
45944;SDS011;31655;48.972;10.686;2023-03-01T12:49:16;29.20;;;14.20;;
45944;SDS011;31655;48.972;10.686;2023-03-01T12:51:59;25.00;;;13.20;;
45944;SDS011;31655;48.972;10.686;2023-03-01T12:54:35;26.20;;;12.80;;
45944;SDS011;31655;48.972;10.686;2023-03-01T13:17:48;26.08;;;14.57;;
45944;SDS011;31655;48.972;10.686;2023-03-01T13:20:18;27.98;;;13.20;;
45944;SDS011;31655;48.972;10.686;2023-03-01T13:22:59;32.17;;;16.08;;
45944;SDS011;31655;48.972;10.686;2023-03-01T13:25:27;24.13;;;12.98;;
45944;SDS011;31655;48.972;10.686;2023-03-01T13:28:09;26.00;;;13.90;;
45944;SDS011;31655;48.972;10.686;2023-03-01T13:30:40;23.63;;;13.60;;
45944;SDS011;31655;48.972;10.686;2023-03-01T13:35:48;25.77;;;15.25;;
45944;SDS011;31655;48.972;10.686;2023-03-01T13:41:46;32.67;;;14.88;;
45944;SDS011;31655;48.972;10.686;2023-03-01T13:46:51;24.05;;;13.68;;
45944;SDS011;31655;48.972;10.686;2023-03-01T13:49:46;27.73;;;14.30;;
45944;SDS011;31655;48.972;10.686;2023-03-01T13:54:52;22.73;;;12.40;;
45944;SDS011;31655;48.972;10.686;2023-03-01T13:57:20;21.10;;;12.30;;
45944;SDS011;31655;48.972;10.686;2023-03-01T13:59:49;28.70;;;14.23;;
45944;SDS011;31655;48.972;10.686;2023-03-01T14:02:15;21.95;;;11.90;;
45944;SDS011;31655;48.972;10.686;2023-03-01T14:04:42;24.98;;;13.15;;
45944;SDS011;31655;48.972;10.686;2023-03-01T14:07:26;24.90;;;13.38;;
45944;SDS011;31655;48.972;10.686;2023-03-01T14:10:00;22.05;;;13.18;;
45944;SDS011;31655;48.972;10.686;2023-03-01T14:15:39;24.98;;;12.45;;
45944;SDS011;31655;48.972;10.686;2023-03-01T14:18:18;30.10;;;15.10;;
45944;SDS011;31655;48.972;10.686;2023-03-01T14:20:47;26.48;;;14.25;;
45944;SDS011;31655;48.972;10.686;2023-03-01T14:23:22;26.50;;;13.13;;
45944;SDS011;31655;48.972;10.686;2023-03-01T14:25:50;21.50;;;12.60;;
45944;SDS011;31655;48.972;10.686;2023-03-01T14:28:23;29.00;;;14.48;;
45944;SDS011;31655;48.972;10.686;2023-03-01T14:30:51;24.25;;;12.38;;
45944;SDS011;31655;48.972;10.686;2023-03-01T14:36:08;26.63;;;13.77;;
45944;SDS011;31655;48.972;10.686;2023-03-01T14:38:37;23.73;;;12.15;;
45944;SDS011;31655;48.972;10.686;2023-03-01T14:41:08;21.75;;;12.45;;
45944;SDS011;31655;48.972;10.686;2023-03-01T14:43:36;25.52;;;12.95;;
45944;SDS011;31655;48.972;10.686;2023-03-01T14:46:05;26.10;;;12.35;;
45944;SDS011;31655;48.972;10.686;2023-03-01T14:48:31;23.75;;;13.32;;
45944;SDS011;31655;48.972;10.686;2023-03-01T14:50:57;20.20;;;11.93;;
45944;SDS011;31655;48.972;10.686;2023-03-01T14:53:26;22.10;;;12.35;;
45944;SDS011;31655;48.972;10.686;2023-03-01T14:55:59;25.83;;;13.27;;
45944;SDS011;31655;48.972;10.686;2023-03-01T14:58:31;21.52;;;11.70;;
45944;SDS011;31655;48.972;10.686;2023-03-01T15:00:59;29.42;;;13.30;;
45944;SDS011;31655;48.972;10.686;2023-03-01T15:03:32;23.80;;;13.50;;
45944;SDS011;31655;48.972;10.686;2023-03-01T15:05:59;27.13;;;13.32;;
45944;SDS011;31655;48.972;10.686;2023-03-01T15:08:26;26.05;;;12.27;;
45944;SDS011;31655;48.972;10.686;2023-03-01T15:13:33;25.25;;;12.77;;
45944;SDS011;31655;48.972;10.686;2023-03-01T15:16:03;24.23;;;13.02;;
45944;SDS011;31655;48.972;10.686;2023-03-01T15:18:30;24.20;;;13.35;;
45944;SDS011;31655;48.972;10.686;2023-03-01T15:21:04;26.33;;;13.93;;
45944;SDS011;31655;48.972;10.686;2023-03-01T15:23:30;26.05;;;14.10;;
45944;SDS011;31655;48.972;10.686;2023-03-01T15:25:58;28.55;;;13.43;;
45944;SDS011;31655;48.972;10.686;2023-03-01T15:28:30;23.10;;;12.27;;
45944;SDS011;31655;48.972;10.686;2023-03-01T15:31:17;23.00;;;12.85;;
45944;SDS011;31655;48.972;10.686;2023-03-01T15:33:45;25.55;;;12.80;;
45944;SDS011;31655;48.972;10.686;2023-03-01T15:38:58;24.88;;;13.02;;
45944;SDS011;31655;48.972;10.686;2023-03-01T15:41:32;27.95;;;13.00;;
45944;SDS011;31655;48.972;10.686;2023-03-01T15:43:58;24.83;;;13.75;;
45944;SDS011;31655;48.972;10.686;2023-03-01T15:48:56;22.23;;;12.57;;
45944;SDS011;31655;48.972;10.686;2023-03-01T15:51:26;24.40;;;13.02;;
45944;SDS011;31655;48.972;10.686;2023-03-01T15:53:53;21.42;;;12.43;;
45944;SDS011;31655;48.972;10.686;2023-03-01T15:56:19;25.17;;;13.02;;
45944;SDS011;31655;48.972;10.686;2023-03-01T15:58:45;28.00;;;13.52;;
45944;SDS011;31655;48.972;10.686;2023-03-01T16:01:12;25.63;;;13.90;;
45944;SDS011;31655;48.972;10.686;2023-03-01T16:03:39;25.75;;;13.55;;
45944;SDS011;31655;48.972;10.686;2023-03-01T16:06:05;29.15;;;14.52;;
45944;SDS011;31655;48.972;10.686;2023-03-01T16:08:31;31.30;;;14.52;;
45944;SDS011;31655;48.972;10.686;2023-03-01T16:10:57;32.95;;;14.95;;
45944;SDS011;31655;48.972;10.686;2023-03-01T16:13:23;32.67;;;15.30;;
45944;SDS011;31655;48.972;10.686;2023-03-01T16:15:50;36.85;;;16.90;;
45944;SDS011;31655;48.972;10.686;2023-03-01T16:18:16;31.63;;;17.73;;
45944;SDS011;31655;48.972;10.686;2023-03-01T16:20:42;30.98;;;16.17;;
45944;SDS011;31655;48.972;10.686;2023-03-01T16:23:09;32.40;;;16.35;;
45944;SDS011;31655;48.972;10.686;2023-03-01T16:25:36;33.97;;;17.23;;
45944;SDS011;31655;48.972;10.686;2023-03-01T16:28:02;32.53;;;16.20;;
45944;SDS011;31655;48.972;10.686;2023-03-01T16:30:33;31.25;;;17.17;;
45944;SDS011;31655;48.972;10.686;2023-03-01T16:33:00;31.80;;;17.20;;
45944;SDS011;31655;48.972;10.686;2023-03-01T16:35:26;34.65;;;16.33;;
45944;SDS011;31655;48.972;10.686;2023-03-01T16:37:52;32.33;;;17.02;;
45944;SDS011;31655;48.972;10.686;2023-03-01T16:42:45;37.20;;;17.95;;
45944;SDS011;31655;48.972;10.686;2023-03-01T16:45:12;34.72;;;16.90;;
45944;SDS011;31655;48.972;10.686;2023-03-01T16:47:38;35.78;;;17.80;;